Shin Puropan Maru — JG5508 — position and weather

sailwx.info

Track history (hours):
 
Tides and Currents Weather Stations Pressure Air Temp Water Temp Dewpoint Dewpoint Depression Visibility Wind Speed Wind Dir Waves Ship Positions

Shin Puropan Maru

Last reported at 2016-Jul-23 06:08 UTC. Time now 2016-Jul-23 19:23 UTC.
Position N 34°00' E 135°01'.

Length 66 m; draft 3.5 m.

Type: Ship (hazmat cat A). MMSI: 431100348.

Date/timePositionNaut miles runAvg speedWind from/ knotsBaromVisibWave heightAir tempDewpointWater temp
2016-Jul-23 06:08N 34°00' E 135°01'1911.8
2016-Jul-23 04:32N 34°19' E 134°59'1212.7
2016-Jul-23 03:33N 34°28' E 135°09'1212.2
2016-Jul-23 02:33N 34°35' E 135°21'4 1.3
2016-Jul-22 23:30N 34°34' E 135°26'2 2.6
2016-Jul-22 22:33N 34°36' E 135°24'1 1.3
2016-Jul-22 21:23N 34°35' E 135°23'0 0.0
2016-Jul-22 20:29N 34°35' E 135°23'0 0.0
2016-Jul-22 19:29N 34°35' E 135°23'0 0.0
2016-Jul-22 18:23N 34°35' E 135°23'0 0.0
2016-Jul-22 17:23N 34°35' E 135°23'0 0.0
2016-Jul-22 16:29N 34°35' E 135°23'0 0.0
2016-Jul-22 15:29N 34°35' E 135°23'0 0.0
2016-Jul-22 14:29N 34°35' E 135°23'0 0.0
2016-Jul-22 13:29N 34°35' E 135°23'0 0.0
2016-Jul-22 11:29N 34°35' E 135°23'5 5.6
2016-Jul-22 10:33N 34°32' E 135°18'1212.1
2016-Jul-22 09:33N 34°23' E 135°08'1312.5
2016-Jul-22 08:33N 34°11' E 135°02'23810.2
2016-Jul-21 09:08N 35°09' E 139°43'711.8
2016-Jul-21 08:33N 35°15' E 139°46'1010.2
2016-Jul-21 07:33N 35°25' E 139°45'1212.3
2016-Jul-21 06:33N 35°32' E 139°58'6 5.7
2016-Jul-21 05:32N 35°33' E 140°05'0 0.0
2016-Jul-21 04:29N 35°33' E 140°05'0 0.0
2016-Jul-21 03:32N 35°33' E 140°05'0 0.0
2016-Jul-21 02:29N 35°33' E 140°05'1 0.6
2016-Jul-21 01:33N 35°33' E 140°05'0 0.2
2016-Jul-21 00:25N 35°33' E 140°05'0 0.0
2016-Jul-20 23:28N 35°33' E 140°05'0 0.0
2016-Jul-20 22:10N 35°33' E 140°05'0 0.0
2016-Jul-20 21:16N 35°33' E 140°05'0 0.0
2016-Jul-20 20:28N 35°33' E 140°05'0 0.0
2016-Jul-20 19:28N 35°33' E 140°05'0 0.0
2016-Jul-20 18:28N 35°33' E 140°05'0 0.0
2016-Jul-20 17:28N 35°33' E 140°05'0 0.0
2016-Jul-20 16:28N 35°33' E 140°05'0 0.0
2016-Jul-20 15:28N 35°33' E 140°05'1 1.1
2016-Jul-20 14:34N 35°33' E 140°04'1211.7
2016-Jul-20 13:34N 35°28' E 139°51'1111.2
2016-Jul-20 12:33N 35°18' E 139°45'1211.6
2016-Jul-20 11:33N 35°06' E 139°45'24110.5
2016-Jul-19 12:33N 34°06' E 135°02'1312.0
2016-Jul-19 11:30N 34°19' E 135°04'1212.4
2016-Jul-19 10:33N 34°28' E 135°13'1212.2
2016-Jul-19 09:33N 34°36' E 135°23'3 2.4
2016-Jul-19 08:24N 34°34' E 135°26'0 0.0
2016-Jul-19 07:18N 34°34' E 135°26'1 0.4
2016-Jul-19 04:32N 34°33' E 135°26'1 0.3
2016-Jul-18 23:32N 34°33' E 135°25'1 0.3
2016-Jul-18 18:20N 34°34' E 135°23'0 0.1
2016-Jul-18 17:32N 34°34' E 135°23'0 0.0
2016-Jul-18 16:26N 34°34' E 135°23'0 0.0
2016-Jul-18 15:32N 34°34' E 135°23'0 0.0
2016-Jul-18 14:26N 34°34' E 135°23'0 0.0
2016-Jul-18 13:32N 34°34' E 135°23'0 0.0
2016-Jul-18 12:32N 34°34' E 135°23'0 0.0
2016-Jul-18 10:26N 34°34' E 135°23'0 0.0
2016-Jul-18 09:32N 34°34' E 135°23'0 0.0
2016-Jul-18 08:08N 34°34' E 135°23'0 0.0
2016-Jul-18 07:26N 34°34' E 135°23'0 0.0
2016-Jul-18 03:14N 34°34' E 135°23'2 2.7
2016-Jul-18 02:33N 34°36' E 135°23'2 0.5
2016-Jul-17 22:33N 34°35' E 135°25'9 9.4
2016-Jul-17 21:33N 34°31' E 135°15'1211.9
2016-Jul-17 20:33N 34°22' E 135°05'1110.4
2016-Jul-17 19:31N 34°12' E 135°00'12 0.3
2016-Jul-16 06:10N 34°01' E 135°01'2911.1
2016-Jul-16 03:33N 34°29' E 135°11'1212.4
2016-Jul-16 02:33N 34°36' E 135°22'3 1.0
2016-Jul-15 23:14N 34°34' E 135°26'2 3.6
2016-Jul-15 22:33N 34°36' E 135°24'6 5.9
2016-Jul-15 21:33N 34°33' E 135°18'1211.6
2016-Jul-15 20:33N 34°25' E 135°08'1311.2
2016-Jul-15 19:22N 34°13' E 134°60'7 0.2
2016-Jul-13 22:33N 34°06' E 135°02'19 4.6
2016-Jul-13 18:28N 34°24' E 135°10'0 0.0
2016-Jul-13 17:28N 34°24' E 135°10'0 0.0
2016-Jul-13 16:22N 34°24' E 135°10'0 0.0
2016-Jul-13 15:28N 34°24' E 135°10'3 0.7
2016-Jul-13 11:33N 34°26' E 135°11'1212.0
2016-Jul-13 10:32N 34°35' E 135°21'4 1.0
2016-Jul-13 07:07N 34°34' E 135°26'3 5.0
2016-Jul-13 06:33N 34°36' E 135°23'  
Track history (hours):
 
Tides and Currents Weather Stations Pressure Air Temp Water Temp Dewpoint Dewpoint Depression Visibility Wind Speed Wind Dir Waves Ship Positions

Shin Puropan Maru

Last reported at 2016-Jul-23 06:08 UTC. Time now 2016-Jul-23 19:23 UTC.
Position N 34°00' E 135°01'.

Length 66 m; draft 3.5 m.

Type: Ship (hazmat cat A). MMSI: 431100348.

Date/timePositionNaut miles runAvg speedWind from/ knotsBaromVisibWave heightAir tempDewpointWater temp
2016-Jul-23 06:08N 34°00' E 135°01'1911.8
2016-Jul-23 04:32N 34°19' E 134°59'1212.7
2016-Jul-23 03:33N 34°28' E 135°09'1212.2
2016-Jul-23 02:33N 34°35' E 135°21'4 1.3
2016-Jul-22 23:30N 34°34' E 135°26'2 2.6
2016-Jul-22 22:33N 34°36' E 135°24'1 1.3
2016-Jul-22 21:23N 34°35' E 135°23'0 0.0
2016-Jul-22 20:29N 34°35' E 135°23'0 0.0
2016-Jul-22 19:29N 34°35' E 135°23'0 0.0
2016-Jul-22 18:23N 34°35' E 135°23'0 0.0
2016-Jul-22 17:23N 34°35' E 135°23'0 0.0
2016-Jul-22 16:29N 34°35' E 135°23'0 0.0
2016-Jul-22 15:29N 34°35' E 135°23'0 0.0
2016-Jul-22 14:29N 34°35' E 135°23'0 0.0
2016-Jul-22 13:29N 34°35' E 135°23'0 0.0
2016-Jul-22 11:29N 34°35' E 135°23'5 5.6
2016-Jul-22 10:33N 34°32' E 135°18'1212.1
2016-Jul-22 09:33N 34°23' E 135°08'1312.5
2016-Jul-22 08:33N 34°11' E 135°02'23810.2
2016-Jul-21 09:08N 35°09' E 139°43'711.8
2016-Jul-21 08:33N 35°15' E 139°46'1010.2
2016-Jul-21 07:33N 35°25' E 139°45'1212.3
2016-Jul-21 06:33N 35°32' E 139°58'6 5.7
2016-Jul-21 05:32N 35°33' E 140°05'0 0.0
2016-Jul-21 04:29N 35°33' E 140°05'0 0.0
2016-Jul-21 03:32N 35°33' E 140°05'0 0.0
2016-Jul-21 02:29N 35°33' E 140°05'1 0.6
2016-Jul-21 01:33N 35°33' E 140°05'0 0.2
2016-Jul-21 00:25N 35°33' E 140°05'0 0.0
2016-Jul-20 23:28N 35°33' E 140°05'0 0.0
2016-Jul-20 22:10N 35°33' E 140°05'0 0.0
2016-Jul-20 21:16N 35°33' E 140°05'0 0.0
2016-Jul-20 20:28N 35°33' E 140°05'0 0.0
2016-Jul-20 19:28N 35°33' E 140°05'0 0.0
2016-Jul-20 18:28N 35°33' E 140°05'0 0.0
2016-Jul-20 17:28N 35°33' E 140°05'0 0.0
2016-Jul-20 16:28N 35°33' E 140°05'0 0.0
2016-Jul-20 15:28N 35°33' E 140°05'1 1.1
2016-Jul-20 14:34N 35°33' E 140°04'1211.7
2016-Jul-20 13:34N 35°28' E 139°51'1111.2
2016-Jul-20 12:33N 35°18' E 139°45'1211.6
2016-Jul-20 11:33N 35°06' E 139°45'24110.5
2016-Jul-19 12:33N 34°06' E 135°02'1312.0
2016-Jul-19 11:30N 34°19' E 135°04'1212.4
2016-Jul-19 10:33N 34°28' E 135°13'1212.2
2016-Jul-19 09:33N 34°36' E 135°23'3 2.4
2016-Jul-19 08:24N 34°34' E 135°26'0 0.0
2016-Jul-19 07:18N 34°34' E 135°26'1 0.4
2016-Jul-19 04:32N 34°33' E 135°26'1 0.3
2016-Jul-18 23:32N 34°33' E 135°25'1 0.3
2016-Jul-18 18:20N 34°34' E 135°23'0 0.1
2016-Jul-18 17:32N 34°34' E 135°23'0 0.0
2016-Jul-18 16:26N 34°34' E 135°23'0 0.0
2016-Jul-18 15:32N 34°34' E 135°23'0 0.0
2016-Jul-18 14:26N 34°34' E 135°23'0 0.0
2016-Jul-18 13:32N 34°34' E 135°23'0 0.0
2016-Jul-18 12:32N 34°34' E 135°23'0 0.0
2016-Jul-18 10:26N 34°34' E 135°23'0 0.0
2016-Jul-18 09:32N 34°34' E 135°23'0 0.0
2016-Jul-18 08:08N 34°34' E 135°23'0 0.0
2016-Jul-18 07:26N 34°34' E 135°23'0 0.0
2016-Jul-18 03:14N 34°34' E 135°23'2 2.7
2016-Jul-18 02:33N 34°36' E 135°23'2 0.5
2016-Jul-17 22:33N 34°35' E 135°25'9 9.4
2016-Jul-17 21:33N 34°31' E 135°15'1211.9
2016-Jul-17 20:33N 34°22' E 135°05'1110.4
2016-Jul-17 19:31N 34°12' E 135°00'12 0.3
2016-Jul-16 06:10N 34°01' E 135°01'2911.1
2016-Jul-16 03:33N 34°29' E 135°11'1212.4
2016-Jul-16 02:33N 34°36' E 135°22'3 1.0
2016-Jul-15 23:14N 34°34' E 135°26'2 3.6
2016-Jul-15 22:33N 34°36' E 135°24'6 5.9
2016-Jul-15 21:33N 34°33' E 135°18'1211.6
2016-Jul-15 20:33N 34°25' E 135°08'1311.2
2016-Jul-15 19:22N 34°13' E 134°60'7 0.2
2016-Jul-13 22:33N 34°06' E 135°02'19 4.6
2016-Jul-13 18:28N 34°24' E 135°10'0 0.0
2016-Jul-13 17:28N 34°24' E 135°10'0 0.0
2016-Jul-13 16:22N 34°24' E 135°10'0 0.0
2016-Jul-13 15:28N 34°24' E 135°10'3 0.7
2016-Jul-13 11:33N 34°26' E 135°11'1212.0
2016-Jul-13 10:32N 34°35' E 135°21'4 1.0
2016-Jul-13 07:07N 34°34' E 135°26'3 5.0
2016-Jul-13 06:33N 34°36' E 135°23'  

Dump ship's entire track history